Time;durP1;ratioP1;P1;durP2;ratioP2;P2;SDS_P1;SDS_P2;PMS_P1;PMS_P2;Temp;Humidity;BMP_temperature;BMP_pressure;BME280_temperature;BME280_humidity;BME280_pressure;Samples;Min_cycle;Max_cycle;Signal;HPM_P1;HPM_P2
2021/03/28 00:00:23;;;;;;;9.63;3.08;;;8.20;60.40;;;;;;5088983;28;27521;-60
2021/03/28 00:03:08;;;;;;;6.88;3.13;;;8.10;60.50;;;;;;5088938;28;26973;-61
2021/03/28 00:05:53;;;;;;;11.80;3.13;;;8.10;60.50;;;;;;5071329;28;27405;-61
2021/03/28 00:08:37;;;;;;;6.32;3.47;;;8.00;60.60;;;;;;5088992;27;27866;-62
2021/03/28 00:11:24;;;;;;;5.93;3.38;;;7.90;60.70;;;;;;5078824;28;27414;-60
2021/03/28 00:14:09;;;;;;;8.27;3.17;;;7.90;60.80;;;;;;5077761;28;27431;-61
2021/03/28 00:16:53;;;;;;;6.97;3.33;;;7.80;60.80;;;;;;5092201;28;27360;-61
2021/03/28 00:19:38;;;;;;;7.47;3.53;;;7.80;60.90;;;;;;5091806;28;27363;-60
2021/03/28 00:22:31;;;;;;;9.98;3.75;;;7.70;60.80;;;;;;5091608;28;27395;-61
2021/03/28 00:25:21;;;;;;;8.68;3.47;;;7.60;60.90;;;;;;5107127;28;27470;-60
2021/03/28 00:28:10;;;;;;;7.07;2.55;;;7.60;61.10;;;;;;5092568;28;27334;-60
2021/03/28 00:31:26;;;;;;;4.43;2.65;;;7.50;61.10;;;;;;5106735;28;27853;-61
2021/03/28 00:34:14;;;;;;;6.53;2.85;;;7.50;61.20;;;;;;5079837;28;27515;-61
2021/03/28 00:37:21;;;;;;;6.22;2.60;;;7.40;61.20;;;;;;5106998;28;27382;-60
2021/03/28 00:40:08;;;;;;;11.20;3.58;;;7.40;61.30;;;;;;5077740;28;27400;-61
2021/03/28 00:43:25;;;;;;;9.27;3.40;;;7.30;61.40;;;;;;5106485;28;27657;-60
2021/03/28 00:46:16;;;;;;;6.13;2.70;;;7.30;61.50;;;;;;5103222;28;27473;-63
2021/03/28 00:49:01;;;;;;;3.83;2.67;;;7.20;61.50;;;;;;5060517;28;27463;-61
2021/03/28 00:51:48;;;;;;;9.45;3.00;;;7.20;61.70;;;;;;5073992;28;27451;-60
2021/03/28 00:54:44;;;;;;;5.53;2.72;;;7.10;61.80;;;;;;5073934;28;27842;-61
2021/03/28 00:57:34;;;;;;;6.88;2.42;;;7.10;61.90;;;;;;5089137;28;27489;-60
2021/03/28 01:00:37;;;;;;;6.70;2.38;;;7.00;61.90;;;;;;5106168;28;27432;-60
2021/03/28 01:03:33;;;;;;;5.43;2.58;;;7.00;61.90;;;;;;5103031;28;27432;-60
2021/03/28 01:06:32;;;;;;;7.05;3.20;;;6.90;62.00;;;;;;5106310;28;27324;-60
2021/03/28 01:09:55;;;;;;;5.85;3.22;;;6.90;62.10;;;;;;5089413;28;27425;-60
2021/03/28 01:12:52;;;;;;;7.93;3.38;;;6.80;62.10;;;;;;5101023;28;27431;-60
2021/03/28 01:16:01;;;;;;;6.28;3.08;;;6.80;62.10;;;;;;5106389;28;27455;-61
2021/03/28 01:19:17;;;;;;;7.40;3.05;;;6.80;62.30;;;;;;5106740;28;27485;-60
2021/03/28 01:22:35;;;;;;;9.00;3.05;;;6.70;62.30;;;;;;5089421;28;27410;-60
2021/03/28 01:25:43;;;;;;;5.13;2.75;;;6.70;62.40;;;;;;5105660;28;27423;-60
2021/03/28 01:28:41;;;;;;;7.82;3.17;;;6.60;62.30;;;;;;5105841;28;27422;-61
2021/03/28 01:31:58;;;;;;;8.90;3.00;;;6.60;62.60;;;;;;5105697;28;27364;-60
2021/03/28 01:34:49;;;;;;;10.48;2.85;;;6.60;62.70;;;;;;5061937;28;27356;-60
2021/03/28 01:37:41;;;;;;;8.48;2.97;;;6.50;62.70;;;;;;5105662;28;27497;-60
2021/03/28 01:40:43;;;;;;;5.38;2.83;;;6.50;62.90;;;;;;5105665;28;27331;-60
2021/03/28 01:43:33;;;;;;;6.10;2.83;;;6.50;62.90;;;;;;5103046;28;27387;-60
2021/03/28 01:46:42;;;;;;;4.78;2.67;;;6.40;62.90;;;;;;5105546;28;27487;-60
2021/03/28 01:49:48;;;;;;;5.68;3.13;;;6.40;62.90;;;;;;5105591;28;27401;-60
2021/03/28 01:52:59;;;;;;;6.40;2.95;;;6.40;63.10;;;;;;5105547;28;27386;-60
2021/03/28 01:55:53;;;;;;;6.10;2.72;;;6.30;63.10;;;;;;5092990;28;27962;-60
2021/03/28 01:59:02;;;;;;;5.38;2.45;;;6.30;63.20;;;;;;5105570;28;27407;-60
2021/03/28 02:02:08;;;;;;;5.15;2.35;;;6.30;63.20;;;;;;5102789;28;27325;-60
2021/03/28 02:05:11;;;;;;;8.13;2.50;;;6.20;63.30;;;;;;5105699;28;27324;-60
2021/03/28 02:08:23;;;;;;;5.80;2.60;;;6.20;63.40;;;;;;5086875;28;27471;-60
2021/03/28 02:11:32;;;;;;;5.68;2.55;;;6.20;63.50;;;;;;5105346;28;27589;-60
2021/03/28 02:14:23;;;;;;;7.32;3.17;;;6.10;64.20;;;;;;5105301;28;27391;-60
2021/03/28 02:17:45;;;;;;;5.97;2.58;;;6.10;63.40;;;;;;5105262;28;27477;-60
2021/03/28 02:20:47;;;;;;;6.65;3.03;;;6.00;63.60;;;;;;5104511;28;27963;-60
2021/03/28 02:23:40;;;;;;;7.57;3.10;;;6.00;63.80;;;;;;5105207;28;27418;-60
2021/03/28 02:26:39;;;;;;;4.38;2.60;;;6.00;63.80;;;;;;5105346;28;27432;-61
2021/03/28 02:29:30;;;;;;;7.15;2.35;;;6.00;63.90;;;;;;5090083;28;27344;-61
2021/03/28 02:32:36;;;;;;;4.97;2.85;;;5.90;63.90;;;;;;5089533;28;27469;-61
2021/03/28 02:35:41;;;;;;;6.13;3.30;;;5.90;63.90;;;;;;5104805;28;27477;-61
2021/03/28 02:38:46;;;;;;;7.03;2.55;;;5.90;63.90;;;;;;5089902;28;27556;-61
2021/03/28 02:41:49;;;;;;;6.15;2.50;;;5.80;64.00;;;;;;5089761;28;27416;-61
2021/03/28 02:44:49;;;;;;;8.73;3.13;;;5.80;64.00;;;;;;5082862;28;27462;-59
2021/03/28 02:47:46;;;;;;;5.90;2.70;;;5.80;64.10;;;;;;5083728;28;27616;-60
2021/03/28 02:51:05;;;;;;;6.45;2.70;;;5.80;64.10;;;;;;5083547;28;27425;-60
2021/03/28 02:54:19;;;;;;;7.43;2.85;;;5.70;64.20;;;;;;5084033;28;27427;-60
2021/03/28 02:57:23;;;;;;;6.53;2.47;;;5.70;64.20;;;;;;5084393;28;27399;-61
2021/03/28 03:00:40;;;;;;;6.88;2.70;;;5.70;64.20;;;;;;5084055;28;27478;-61
2021/03/28 03:04:00;;;;;;;3.78;2.08;;;5.60;64.60;;;;;;5084229;28;27430;-61
2021/03/28 03:07:00;;;;;;;7.30;2.30;;;5.60;64.30;;;;;;5083079;28;27388;-61
2021/03/28 03:10:08;;;;;;;4.18;2.75;;;5.50;64.30;;;;;;5080935;28;27392;-61
2021/03/28 03:13:38;;;;;;;5.97;2.75;;;5.50;64.20;;;;;;5084035;28;27394;-60
2021/03/28 03:16:50;;;;;;;4.70;2.40;;;5.50;64.40;;;;;;5022170;28;27532;-60
2021/03/28 03:20:20;;;;;;;3.47;2.10;;;5.50;64.50;;;;;;5083905;28;27393;-60
2021/03/28 03:23:23;;;;;;;7.05;2.92;;;5.40;64.40;;;;;;5068773;28;27907;-61
2021/03/28 03:26:42;;;;;;;5.20;2.78;;;5.40;64.60;;;;;;5084037;28;27465;-62
2021/03/28 03:29:39;;;;;;;7.07;2.10;;;5.40;64.60;;;;;;5060017;28;27456;-60
2021/03/28 03:33:01;;;;;;;6.32;2.50;;;5.30;64.70;;;;;;5083868;28;27363;-61
2021/03/28 03:36:04;;;;;;;6.32;2.40;;;5.30;64.70;;;;;;5083282;28;28016;-61
2021/03/28 03:39:16;;;;;;;6.50;2.63;;;5.30;64.70;;;;;;5083525;28;27431;-60
2021/03/28 03:42:38;;;;;;;4.05;2.33;;;5.20;64.70;;;;;;5082979;28;27633;-60
2021/03/28 03:45:34;;;;;;;4.63;2.25;;;5.20;64.80;;;;;;5066387;28;27373;-60
2021/03/28 03:48:41;;;;;;;3.67;2.20;;;5.20;64.80;;;;;;5066707;28;27396;-61
2021/03/28 03:51:57;;;;;;;3.85;2.10;;;5.20;64.90;;;;;;5066499;28;27337;-60
2021/03/28 03:54:45;;;;;;;8.60;2.75;;;5.10;65.00;;;;;;5066094;28;27507;-61
2021/03/28 03:57:46;;;;;;;6.18;2.30;;;5.10;64.90;;;;;;5066694;28;27436;-61
2021/03/28 04:00:47;;;;;;;5.25;2.03;;;5.10;65.00;;;;;;5065975;28;27393;-61
2021/03/28 04:03:38;;;;;;;4.10;2.33;;;5.10;65.10;;;;;;5066119;28;27417;-61
2021/03/28 04:07:06;;;;;;;3.92;2.10;;;5.10;65.10;;;;;;5066089;28;27441;-60
2021/03/28 04:10:16;;;;;;;3.13;2.10;;;5.00;65.10;;;;;;5065116;28;27486;-60
2021/03/28 04:13:21;;;;;;;8.30;2.67;;;5.00;65.20;;;;;;5065615;28;28424;-60
2021/03/28 04:16:17;;;;;;;7.30;2.17;;;4.90;65.10;;;;;;5066321;28;27397;-60
2021/03/28 04:19:31;;;;;;;5.55;2.08;;;4.90;65.10;;;;;;5066645;28;27400;-60
2021/03/28 04:22:15;;;;;;;7.80;2.38;;;4.90;65.20;;;;;;5065517;28;27360;-60
2021/03/28 04:25:06;;;;;;;5.15;2.47;;;4.90;65.30;;;;;;5066615;28;27873;-61
2021/03/28 04:27:56;;;;;;;3.35;2.15;;;4.90;65.50;;;;;;5066214;28;27404;-60
2021/03/28 04:30:56;;;;;;;4.88;2.20;;;4.80;65.40;;;;;;5066463;28;27432;-61
2021/03/28 04:33:53;;;;;;;8.45;2.30;;;4.80;65.50;;;;;;5066343;28;27420;-61
2021/03/28 04:37:02;;;;;;;3.13;1.80;;;4.80;65.50;;;;;;5066004;28;27932;-61
2021/03/28 04:40:24;;;;;;;7.25;2.35;;;4.80;65.60;;;;;;5066076;28;27583;-61
2021/03/28 04:43:11;;;;;;;3.05;2.00;;;4.70;65.50;;;;;;5072964;28;27360;-61
2021/03/28 04:46:30;;;;;;;6.30;2.42;;;4.70;65.50;;;;;;5106851;28;27373;-61
2021/03/28 04:49:30;;;;;;;5.60;2.25;;;4.70;65.60;;;;;;5106530;28;27991;-61
2021/03/28 04:52:39;;;;;;;4.35;2.22;;;4.70;65.50;;;;;;5106752;28;27588;-60
2021/03/28 04:55:42;;;;;;;3.60;1.98;;;4.70;65.70;;;;;;5104880;27;27559;-60
2021/03/28 04:58:53;;;;;;;5.88;2.22;;;4.60;65.70;;;;;;5106622;28;27317;-60
2021/03/28 05:01:42;;;;;;;3.75;2.10;;;4.60;65.70;;;;;;5071993;28;27391;-60
2021/03/28 05:04:54;;;;;;;6.35;2.03;;;4.60;65.80;;;;;;5091128;28;27687;-61
2021/03/28 05:08:13;;;;;;;4.82;2.15;;;4.60;65.80;;;;;;5092042;28;27412;-61
2021/03/28 05:11:03;;;;;;;5.68;2.05;;;4.60;65.90;;;;;;5102749;28;27482;-60
2021/03/28 05:14:12;;;;;;;4.60;2.05;;;4.60;65.90;;;;;;5106344;28;27344;-60
2021/03/28 05:17:02;;;;;;;6.50;1.88;;;4.60;65.90;;;;;;5106066;28;27411;-61
2021/03/28 05:20:15;;;;;;;3.70;1.67;;;4.50;65.90;;;;;;5106357;28;27404;-61
2021/03/28 05:23:23;;;;;;;4.82;2.15;;;4.60;65.90;;;;;;5090997;28;27487;-61
2021/03/28 05:26:21;;;;;;;5.10;2.42;;;4.60;65.90;;;;;;5106020;28;28016;-61
2021/03/28 05:29:27;;;;;;;4.72;2.00;;;4.60;65.90;;;;;;5091797;28;27385;-61
2021/03/28 05:32:39;;;;;;;4.60;2.10;;;4.60;65.80;;;;;;5105914;28;27551;-61
2021/03/28 05:35:49;;;;;;;5.78;1.90;;;4.50;65.80;;;;;;5105594;28;27388;-60
2021/03/28 05:38:54;;;;;;;5.85;2.15;;;4.60;65.80;;;;;;5105887;28;27464;-61
2021/03/28 05:41:59;;;;;;;5.28;2.30;;;4.60;65.60;;;;;;5066718;28;27488;-60
2021/03/28 05:45:13;;;;;;;4.32;2.47;;;4.60;65.50;;;;;;5105339;28;27573;-60
2021/03/28 05:48:03;;;;;;;7.57;2.03;;;4.70;65.50;;;;;;5105660;28;27478;-61
2021/03/28 05:51:06;;;;;;;5.93;2.53;;;4.70;65.40;;;;;;5105810;28;27434;-61
2021/03/28 05:53:56;;;;;;;7.35;2.30;;;4.80;65.30;;;;;;5090419;28;27396;-61
2021/03/28 05:57:03;;;;;;;8.85;2.60;;;4.80;65.20;;;;;;5105842;28;27358;-61
2021/03/28 05:59:47;;;;;;;4.68;2.75;;;4.80;65.10;;;;;;5102100;28;27408;-60
2021/03/28 06:03:12;;;;;;;3.47;2.22;;;4.90;65.10;;;;;;5105722;28;27466;-61
2021/03/28 06:06:18;;;;;;;5.00;2.30;;;4.90;65.00;;;;;;5090234;27;27337;-60
2021/03/28 06:09:29;;;;;;;6.90;2.35;;;4.90;64.90;;;;;;5105449;28;27470;-61
2021/03/28 06:12:34;;;;;;;4.00;2.15;;;5.00;65.00;;;;;;5105606;28;27316;-61
2021/03/28 06:15:55;;;;;;;8.75;2.88;;;5.00;64.80;;;;;;5090260;28;27928;-60
2021/03/28 06:19:36;;;;;;;6.72;2.30;;;5.00;64.70;;;;;;5105113;28;27478;-60
2021/03/28 06:22:44;;;;;;;4.93;2.88;;;5.10;64.70;;;;;;5003101;28;27390;-60
2021/03/28 06:25:47;;;;;;;7.22;2.88;;;5.20;64.70;;;;;;5002660;28;27465;-61
2021/03/28 06:28:58;;;;;;;4.57;2.28;;;5.30;64.60;;;;;;5003216;28;27863;-62
2021/03/28 06:32:04;;;;;;;6.25;2.97;;;5.30;64.60;;;;;;4991410;28;27422;-60
2021/03/28 06:34:58;;;;;;;8.02;2.40;;;5.30;64.50;;;;;;5002795;28;27625;-61
2021/03/28 06:38:03;;;;;;;6.55;2.42;;;5.40;64.50;;;;;;5003058;28;27470;-61
2021/03/28 06:41:00;;;;;;;5.45;2.70;;;5.50;64.30;;;;;;4988688;28;27422;-61
2021/03/28 06:44:08;;;;;;;7.03;2.28;;;5.50;64.30;;;;;;4986791;28;27427;-61
2021/03/28 06:47:23;;;;;;;5.00;2.33;;;5.60;64.10;;;;;;5002912;28;27383;-61
2021/03/28 06:50:44;;;;;;;4.93;2.55;;;5.70;64.00;;;;;;5002081;28;27701;-61
2021/03/28 06:53:34;;;;;;;6.20;2.75;;;6.00;64.00;;;;;;5056487;28;27344;-60
2021/03/28 06:56:49;;;;;;;6.28;2.38;;;6.20;63.70;;;;;;5063924;28;27421;-61
2021/03/28 07:00:02;;;;;;;5.30;2.78;;;6.60;63.20;;;;;;5060364;28;27416;-60
2021/03/28 07:03:11;;;;;;;5.82;2.22;;;7.10;61.90;;;;;;5060965;28;27483;-61
2021/03/28 07:06:05;;;;;;;4.38;1.88;;;7.70;60.90;;;;;;5063750;28;27408;-60
2021/03/28 07:08:55;;;;;;;4.97;2.67;;;8.60;58.80;;;;;;5063279;28;27484;-60
2021/03/28 07:12:08;;;;;;;6.07;2.33;;;9.50;57.00;;;;;;5064067;28;27402;-60
2021/03/28 07:15:18;;;;;;;4.65;1.95;;;10.50;55.00;;;;;;5061165;28;27318;-60
2021/03/28 07:18:21;;;;;;;5.32;2.15;;;11.30;53.40;;;;;;5062121;28;27955;-61
2021/03/28 07:21:27;;;;;;;4.50;2.20;;;12.10;51.70;;;;;;5063887;28;27407;-61
2021/03/28 07:24:17;;;;;;;3.83;1.95;;;12.60;50.60;;;;;;5063905;28;27446;-60
2021/03/28 07:27:08;;;;;;;6.22;2.30;;;13.00;50.00;;;;;;5063816;28;27402;-61
2021/03/28 07:30:13;;;;;;;4.28;2.13;;;13.20;50.20;;;;;;5063783;28;27455;-61
2021/03/28 07:32:58;;;;;;;5.93;2.10;;;13.30;50.80;;;;;;5060187;28;27487;-61
2021/03/28 07:36:17;;;;;;;6.38;2.08;;;13.60;50.60;;;;;;5063560;28;27422;-60
2021/03/28 07:39:14;;;;;;;5.50;1.95;;;13.90;50.40;;;;;;5063386;28;27400;-60
2021/03/28 07:42:20;;;;;;;7.07;2.08;;;14.10;50.20;;;;;;5062612;28;27422;-61
2021/03/28 07:45:22;;;;;;;5.30;2.25;;;14.30;50.20;;;;;;5081894;28;27379;-61
2021/03/28 07:48:40;;;;;;;5.15;2.13;;;14.40;50.00;;;;;;5083431;28;27450;-61
2021/03/28 07:51:46;;;;;;;4.10;2.22;;;14.30;50.30;;;;;;5083775;28;27391;-61
2021/03/28 07:54:48;;;;;;;5.07;2.10;;;14.20;50.60;;;;;;5083507;28;27324;-60
2021/03/28 07:57:54;;;;;;;4.78;2.00;;;14.30;49.70;;;;;;5082618;28;27452;-60
2021/03/28 08:00:48;;;;;;;3.58;1.88;;;14.80;48.80;;;;;;5083483;28;27376;-60
2021/03/28 08:04:02;;;;;;;4.88;1.83;;;15.60;48.00;;;;;;5083399;28;27373;-61
2021/03/28 08:07:41;;;;;;;5.18;2.05;;;16.30;47.00;;;;;;5079921;28;27852;-61
2021/03/28 08:10:29;;;;;;;3.33;2.00;;;17.20;45.50;;;;;;5075961;28;27389;-60
2021/03/28 08:13:47;;;;;;;5.07;2.17;;;17.80;44.70;;;;;;5083478;28;27411;-60
2021/03/28 08:17:01;;;;;;;5.60;2.38;;;17.90;44.70;;;;;;5082487;28;27450;-61
2021/03/28 08:20:16;;;;;;;5.32;2.03;;;17.80;45.20;;;;;;5058937;28;27481;-60
2021/03/28 08:23:31;;;;;;;5.45;2.10;;;17.70;45.80;;;;;;5083282;28;27442;-60
2021/03/28 08:26:52;;;;;;;6.55;1.98;;;17.50;46.00;;;;;;5082663;28;27427;-61
2021/03/28 08:30:19;;;;;;;5.93;1.88;;;17.20;46.70;;;;;;5082182;28;27528;-61
2021/03/28 08:33:41;;;;;;;6.10;2.25;;;16.80;47.30;;;;;;5086560;28;27943;-61
2021/03/28 08:36:56;;;;;;;5.93;2.17;;;16.80;46.80;;;;;;5086531;28;27340;-61
2021/03/28 08:40:02;;;;;;;7.03;2.38;;;17.10;46.30;;;;;;5086618;28;27352;-60
2021/03/28 08:43:24;;;;;;;4.65;2.30;;;17.70;45.00;;;;;;5083252;28;27375;-61
2021/03/28 08:46:37;;;;;;;4.90;1.70;;;18.40;44.20;;;;;;5103816;28;27944;-61
2021/03/28 08:49:47;;;;;;;6.70;2.33;;;19.30;42.80;;;;;;5106939;28;27483;-60
2021/03/28 08:52:56;;;;;;;3.92;2.20;;;20.30;41.80;;;;;;5106742;28;27336;-59
2021/03/28 08:56:11;;;;;;;5.97;1.92;;;21.20;40.30;;;;;;5106564;28;27531;-60
2021/03/28 08:59:08;;;;;;;5.82;2.63;;;22.10;38.70;;;;;;5106636;28;27492;-60
2021/03/28 09:02:06;;;;;;;4.50;2.10;;;22.60;37.80;;;;;;5106878;28;27414;-60
2021/03/28 09:05:05;;;;;;;6.68;2.15;;;23.30;37.10;;;;;;5092636;28;27368;-59
2021/03/28 09:08:02;;;;;;;4.78;2.15;;;23.80;36.20;;;;;;5089203;28;27519;-59
2021/03/28 09:10:49;;;;;;;5.20;2.50;;;24.40;35.80;;;;;;5106704;28;27433;-59
2021/03/28 09:14:51;;;;;;;6.30;1.85;;;24.80;35.30;;;;;;5106647;28;27325;-58
2021/03/28 09:17:44;;;;;;;7.07;1.80;;;25.20;34.80;;;;;;4907293;29;27543;-59
2021/03/28 09:20:47;;;;;;;4.82;2.20;;;25.60;34.50;;;;;;4895231;29;27456;-60
2021/03/28 09:23:42;;;;;;;5.50;1.95;;;25.90;34.30;;;;;;4907708;29;27969;-59
2021/03/28 09:27:16;;;;;;;6.75;2.55;;;26.20;34.00;;;;;;4891252;29;27536;-59
2021/03/28 09:30:21;;;;;;;8.38;2.10;;;26.60;33.70;;;;;;4891123;29;27453;-59
2021/03/28 09:33:27;;;;;;;6.20;2.33;;;27.00;32.70;;;;;;4907849;29;27329;-59
2021/03/28 09:36:29;;;;;;;5.03;2.20;;;27.20;32.90;;;;;;4906896;29;27885;-59
2021/03/28 09:39:43;;;;;;;4.55;2.08;;;27.50;32.50;;;;;;4893931;29;27473;-59
2021/03/28 09:42:46;;;;;;;4.63;2.05;;;27.70;32.00;;;;;;4863913;29;27466;-59
2021/03/28 09:45:40;;;;;;;4.13;1.77;;;28.00;32.00;;;;;;4907475;29;27459;-59
2021/03/28 09:48:45;;;;;;;5.40;2.22;;;28.30;31.80;;;;;;5054210;28;27519;-60
2021/03/28 09:51:51;;;;;;;6.53;2.10;;;28.50;30.90;;;;;;5090634;28;27420;-60
2021/03/28 09:54:39;;;;;;;4.53;1.95;;;28.80;31.10;;;;;;5090666;28;27445;-60
2021/03/28 09:57:35;;;;;;;4.45;1.60;;;29.00;30.60;;;;;;5087598;28;27414;-60
2021/03/28 10:00:29;;;;;;;4.43;1.88;;;29.20;30.00;;;;;;5105958;28;27805;-60
2021/03/28 10:03:24;;;;;;;5.15;1.90;;;29.30;30.20;;;;;;5090280;28;27344;-60
2021/03/28 10:06:15;;;;;;;4.32;1.67;;;29.50;29.60;;;;;;5105678;28;27456;-60
2021/03/28 10:09:10;;;;;;;5.38;1.70;;;29.60;30.00;;;;;;5090820;28;27471;-61
2021/03/28 10:12:00;;;;;;;6.30;2.67;;;29.90;29.90;;;;;;5105808;28;27454;-59
2021/03/28 10:15:11;;;;;;;5.80;1.73;;;30.00;29.50;;;;;;5090678;28;27425;-60
2021/03/28 10:18:10;;;;;;;6.03;1.83;;;30.20;28.20;;;;;;5105775;28;27419;-61
2021/03/28 10:21:06;;;;;;;3.03;1.45;;;30.40;28.30;;;;;;5087291;28;27421;-61
2021/03/28 10:24:20;;;;;;;5.00;1.67;;;30.60;28.40;;;;;;5105613;28;27321;-61
2021/03/28 10:27:18;;;;;;;4.95;2.00;;;30.90;28.50;;;;;;5072768;28;27657;-62
2021/03/28 10:30:13;;;;;;;4.00;1.55;;;31.00;28.30;;;;;;5074417;28;27519;-60
2021/03/28 10:33:14;;;;;;;4.38;1.52;;;31.20;28.40;;;;;;5105140;28;27419;-60
2021/03/28 10:36:39;;;;;;;4.80;1.52;;;31.30;28.10;;;;;;5076171;28;27366;-60
2021/03/28 10:39:27;;;;;;;3.10;1.35;;;31.20;27.60;;;;;;5078041;28;27603;-60
2021/03/28 10:42:42;;;;;;;7.43;1.83;;;31.00;26.70;;;;;;5105100;28;27359;-60
2021/03/28 10:45:42;;;;;;;4.90;1.73;;;31.00;27.60;;;;;;5105074;28;27328;-60
2021/03/28 10:48:38;;;;;;;4.88;1.88;;;31.30;28.30;;;;;;5104716;28;27469;-59
2021/03/28 10:51:50;;;;;;;6.35;1.50;;;31.40;28.10;;;;;;5104937;28;27374;-61
2021/03/28 10:55:12;;;;;;;2.88;1.27;;;31.60;28.20;;;;;;5104894;27;27416;-61
2021/03/28 10:58:41;;;;;;;6.18;1.75;;;31.70;27.70;;;;;;5104494;28;27508;-60
2021/03/28 11:01:58;;;;;;;5.35;1.98;;;31.80;27.60;;;;;;5101464;28;27856;-61
2021/03/28 11:05:18;;;;;;;4.00;1.40;;;32.00;27.30;;;;;;5104953;28;27328;-61
2021/03/28 11:08:30;;;;;;;3.92;1.52;;;32.20;27.90;;;;;;5101306;28;27498;-59
2021/03/28 11:11:47;;;;;;;3.65;1.30;;;32.30;27.80;;;;;;5104911;28;27323;-60
2021/03/28 11:14:47;;;;;;;3.90;1.75;;;32.30;26.90;;;;;;5088402;28;27368;-61
2021/03/28 11:17:49;;;;;;;3.72;1.50;;;32.30;26.50;;;;;;5089862;28;27431;-61
2021/03/28 11:20:49;;;;;;;3.85;1.60;;;32.30;26.30;;;;;;5104896;28;27424;-61
2021/03/28 11:24:08;;;;;;;3.17;1.38;;;32.40;26.90;;;;;;5105123;28;27411;-61
2021/03/28 11:26:58;;;;;;;5.32;1.90;;;32.40;27.00;;;;;;5101341;28;27909;-60
2021/03/28 11:30:27;;;;;;;4.85;1.80;;;32.60;27.10;;;;;;5104628;28;27388;-61
2021/03/28 11:33:14;;;;;;;9.70;1.90;;;32.60;26.80;;;;;;5061090;28;27426;-61
2021/03/28 11:36:24;;;;;;;3.80;1.55;;;32.60;27.10;;;;;;5089242;28;27422;-61
2021/03/28 11:39:21;;;;;;;6.18;1.80;;;32.60;26.20;;;;;;5104402;28;27390;-61
2021/03/28 11:42:09;;;;;;;8.68;2.10;;;32.60;26.90;;;;;;5105065;28;27392;-61
2021/03/28 11:44:59;;;;;;;5.03;1.80;;;32.80;27.40;;;;;;5103293;28;27538;-61
2021/03/28 11:47:50;;;;;;;5.30;1.52;;;32.90;27.60;;;;;;5104121;28;27394;-61
2021/03/28 11:50:36;;;;;;;7.68;1.63;;;33.00;27.70;;;;;;5074745;28;27509;-58
2021/03/28 11:53:24;;;;;;;5.00;1.77;;;33.20;25.80;;;;;;5074134;28;27543;-58
2021/03/28 11:56:49;;;;;;;12.02;1.73;;;32.40;20.60;;;;;;5103896;28;27365;-59
2021/03/28 11:59:39;;;;;;;5.63;1.70;;;31.50;24.00;;;;;;5001591;28;26933;-60
2021/03/28 12:02:28;;;;;;;5.20;1.52;;;31.60;25.40;;;;;;5089055;28;27933;-60
2021/03/28 12:05:12;;;;;;;4.80;1.67;;;31.90;26.10;;;;;;5058582;28;27432;-60
2021/03/28 12:08:05;;;;;;;3.97;1.38;;;32.10;26.20;;;;;;5107755;28;27420;-60
2021/03/28 12:10:50;;;;;;;5.18;1.73;;;32.30;26.70;;;;;;5075170;28;27439;-60
2021/03/28 12:13:45;;;;;;;4.97;1.52;;;32.50;27.40;;;;;;5089234;28;27399;-60
2021/03/28 12:17:22;;;;;;;3.65;1.65;;;32.60;27.10;;;;;;5092381;28;27494;-62
2021/03/28 12:20:19;;;;;;;3.95;1.52;;;32.60;27.50;;;;;;5063781;28;27504;-60
2021/03/28 12:23:20;;;;;;;4.00;1.33;;;32.60;28.00;;;;;;5107536;28;27414;-60
2021/03/28 12:26:18;;;;;;;4.18;1.30;;;32.70;27.70;;;;;;5077694;28;27466;-60
2021/03/28 12:29:07;;;;;;;6.00;1.83;;;32.80;27.60;;;;;;5107421;28;27470;-60
2021/03/28 12:31:52;;;;;;;4.95;1.30;;;32.80;27.80;;;;;;5092381;28;27397;-60
2021/03/28 12:34:38;;;;;;;6.05;2.00;;;32.80;27.30;;;;;;5091960;28;27406;-60
2021/03/28 12:37:26;;;;;;;4.97;1.52;;;32.80;27.20;;;;;;5092154;28;27339;-61
2021/03/28 12:40:26;;;;;;;4.63;1.30;;;32.80;27.60;;;;;;5091891;28;27487;-61
2021/03/28 12:43:32;;;;;;;5.95;1.88;;;32.90;28.50;;;;;;5106721;28;27415;-60
2021/03/28 12:46:31;;;;;;;2.50;1.30;;;33.00;28.50;;;;;;5091038;28;27437;-61
2021/03/28 12:49:31;;;;;;;6.57;1.80;;;33.00;28.60;;;;;;5107021;28;27960;-61
2021/03/28 12:52:18;;;;;;;4.82;1.55;;;33.00;28.60;;;;;;5091528;28;27510;-60
2021/03/28 12:55:10;;;;;;;5.15;1.50;;;33.00;28.00;;;;;;5106870;28;27423;-61
2021/03/28 12:58:07;;;;;;;5.35;1.33;;;33.00;28.00;;;;;;5092206;28;27368;-60
2021/03/28 13:01:33;;;;;;;6.03;1.40;;;33.00;28.10;;;;;;5106875;28;27324;-61
2021/03/28 13:04:21;;;;;;;4.00;1.40;;;32.90;28.90;;;;;;5077099;28;27505;-61
2021/03/28 13:07:09;;;;;;;4.85;1.50;;;32.90;27.60;;;;;;5091805;28;27415;-61
2021/03/28 13:09:54;;;;;;;4.60;1.50;;;32.80;26.70;;;;;;5091643;28;27342;-61
2021/03/28 13:12:38;;;;;;;5.30;1.30;;;32.80;27.00;;;;;;5090956;28;27854;-61
2021/03/28 13:15:28;;;;;;;6.22;1.17;;;32.70;27.80;;;;;;5091068;28;27432;-61
2021/03/28 13:18:27;;;;;;;3.03;1.40;;;32.70;28.00;;;;;;5091444;28;27380;-61
2021/03/28 13:21:27;;;;;;;3.42;1.23;;;32.70;28.50;;;;;;5106256;28;27400;-61
2021/03/28 13:24:13;;;;;;;5.60;1.42;;;32.70;28.20;;;;;;5106494;28;27328;-61
2021/03/28 13:27:03;;;;;;;3.40;1.27;;;32.60;28.60;;;;;;5091236;28;27452;-61
2021/03/28 13:29:55;;;;;;;3.92;1.58;;;32.60;28.70;;;;;;5102970;28;27384;-60
2021/03/28 13:32:40;;;;;;;5.78;1.48;;;32.50;28.60;;;;;;5088582;28;27421;-61
2021/03/28 13:35:31;;;;;;;4.00;1.30;;;32.50;28.40;;;;;;5090899;28;27925;-61
2021/03/28 13:38:24;;;;;;;3.65;1.33;;;32.40;28.20;;;;;;5090840;28;27384;-61
2021/03/28 13:41:30;;;;;;;3.45;1.40;;;32.30;28.10;;;;;;5075995;28;27432;-61
2021/03/28 13:44:22;;;;;;;4.20;1.63;;;32.30;28.60;;;;;;5084389;28;27330;-61
2021/03/28 13:47:07;;;;;;;4.82;1.65;;;32.20;28.80;;;;;;5085592;28;27934;-61
2021/03/28 13:49:52;;;;;;;4.85;1.42;;;32.10;28.70;;;;;;5084902;28;27423;-61
2021/03/28 13:52:37;;;;;;;4.07;1.40;;;32.10;29.10;;;;;;5081440;28;27428;-63
2021/03/28 13:55:57;;;;;;;3.50;1.50;;;32.00;29.40;;;;;;5070612;28;27459;-61
2021/03/28 13:58:42;;;;;;;4.22;1.48;;;31.90;29.00;;;;;;5084698;28;27333;-61
2021/03/28 14:01:33;;;;;;;2.00;1.05;;;31.70;28.30;;;;;;5081566;28;27396;-61
2021/03/28 14:04:39;;;;;;;4.68;1.20;;;31.60;29.40;;;;;;5085484;28;27356;-61
2021/03/28 14:07:26;;;;;;;3.75;1.27;;;31.50;29.80;;;;;;5084937;28;27644;-61
2021/03/28 14:10:22;;;;;;;3.58;1.50;;;31.40;29.50;;;;;;5084246;28;27388;-60
2021/03/28 14:13:30;;;;;;;5.18;1.60;;;31.30;29.40;;;;;;5085311;28;27345;-62
2021/03/28 14:16:16;;;;;;;4.18;1.40;;;31.10;29.00;;;;;;5084326;28;27427;-60
2021/03/28 14:19:09;;;;;;;4.05;1.85;;;31.00;28.00;;;;;;5084266;28;27489;-60
2021/03/28 14:21:53;;;;;;;4.72;1.55;;;30.90;29.00;;;;;;5081920;28;27411;-61
2021/03/28 14:24:39;;;;;;;5.75;1.90;;;30.70;29.20;;;;;;5085133;28;27559;-61
2021/03/28 14:27:29;;;;;;;5.22;1.40;;;30.50;29.30;;;;;;5083821;28;27435;-60
2021/03/28 14:30:22;;;;;;;2.38;1.30;;;30.40;30.50;;;;;;5085094;28;27312;-61
2021/03/28 14:33:17;;;;;;;5.45;1.25;;;30.20;30.90;;;;;;5084567;28;27804;-61
2021/03/28 14:36:22;;;;;;;3.10;1.38;;;30.10;30.60;;;;;;5084011;28;27415;-61
2021/03/28 14:39:32;;;;;;;2.80;1.17;;;29.90;31.10;;;;;;5085019;28;27447;-62
2021/03/28 14:42:21;;;;;;;3.38;1.40;;;29.80;31.10;;;;;;5084743;28;27313;-62
2021/03/28 14:45:09;;;;;;;3.47;1.52;;;29.60;31.60;;;;;;5103721;28;27433;-61
2021/03/28 14:48:02;;;;;;;5.47;1.70;;;29.40;31.00;;;;;;5105223;28;27427;-61
2021/03/28 14:51:15;;;;;;;10.93;1.73;;;29.10;29.10;;;;;;5105293;28;27469;-61
2021/03/28 14:54:28;;;;;;;13.82;3.15;;;28.40;25.20;;;;;;5086749;28;27475;-62
2021/03/28 14:57:16;;;;;;;10.88;2.33;;;28.10;28.00;;;;;;5091428;28;27494;-61
2021/03/28 15:00:07;;;;;;;24.52;2.20;;;28.00;29.60;;;;;;5089429;28;27474;-61
2021/03/28 15:03:09;;;;;;;15.18;1.92;;;27.90;30.70;;;;;;5105122;28;27390;-62
2021/03/28 15:06:23;;;;;;;29.50;2.25;;;27.80;32.20;;;;;;5104808;28;27430;-62
2021/03/28 15:09:23;;;;;;;27.33;2.90;;;27.70;32.00;;;;;;5104966;28;27348;-61
2021/03/28 15:12:31;;;;;;;14.98;2.42;;;27.50;28.50;;;;;;5086375;28;27675;-62
2021/03/28 15:15:40;;;;;;;7.95;1.95;;;27.10;27.20;;;;;;5089817;28;27447;-62
2021/03/28 15:18:52;;;;;;;6.15;1.80;;;26.80;28.50;;;;;;5092617;28;27441;-62
2021/03/28 15:21:45;;;;;;;6.63;1.98;;;26.70;29.90;;;;;;5104492;28;27465;-62
2021/03/28 15:25:08;;;;;;;5.78;1.45;;;26.50;30.30;;;;;;5104725;28;27466;-64
2021/03/28 15:28:20;;;;;;;6.95;1.40;;;26.40;30.70;;;;;;5103252;28;27321;-62
2021/03/28 15:31:33;;;;;;;8.73;1.73;;;26.40;31.30;;;;;;5077227;28;27324;-62
2021/03/28 15:34:21;;;;;;;4.05;2.08;;;26.20;31.20;;;;;;5092397;28;27849;-64
2021/03/28 15:37:15;;;;;;;8.05;1.67;;;26.10;32.10;;;;;;5104811;28;27387;-62
2021/03/28 15:40:25;;;;;;;2.50;1.13;;;26.00;32.10;;;;;;5105883;27;27344;-62
2021/03/28 15:43:22;;;;;;;9.63;1.70;;;25.90;32.70;;;;;;5081000;28;27411;-62
2021/03/28 15:46:14;;;;;;;9.95;1.45;;;25.70;32.90;;;;;;5089040;28;27841;-62
2021/03/28 15:49:04;;;;;;;11.00;1.70;;;25.60;33.10;;;;;;5092924;28;27620;-65
2021/03/28 15:52:08;;;;;;;13.43;1.90;;;25.50;33.60;;;;;;5104762;28;27378;-62